Time;durP1;ratioP1;P1;durP2;ratioP2;P2;SDS_P1;SDS_P2;PMS_P1;PMS_P2;Temp;Humidity;BMP_temperature;BMP_pressure;BME280_temperature;BME280_humidity;BME280_pressure;Samples;Min_cycle;Max_cycle;Signal;HPM_P1;HPM_P2
2021/08/22 00:01:06;;;;;;;;;;;26.20;99.90;;;;;;1846846;76;20223;-87
2021/08/22 00:03:36;;;;;;;;;;;26.20;99.90;;;;;;1846102;76;20272;-87
2021/08/22 00:06:06;;;;;;;;;;;26.30;99.90;;;;;;1849777;76;20201;-87
2021/08/22 00:08:37;;;;;;;;;;;26.40;99.90;;;;;;1843689;76;20201;-88
2021/08/22 00:11:07;;;;;;;;;;;26.40;99.90;;;;;;1852425;76;20286;-88
2021/08/22 00:13:37;;;;;;;;;;;26.50;99.90;;;;;;1840732;76;20198;-87
2021/08/22 00:16:07;;;;;;;;;;;26.50;99.90;;;;;;1851008;77;20348;-87
2021/08/22 00:18:37;;;;;;;;;;;26.50;99.90;;;;;;1854932;77;20197;-87
2021/08/22 00:21:07;;;;;;;;;;;26.60;99.90;;;;;;1840901;76;20204;-87
2021/08/22 00:23:36;;;;;;;;;;;26.60;99.90;;;;;;1847159;77;20217;-87
2021/08/22 00:26:06;;;;;;;;;;;26.70;99.90;;;;;;1850959;76;20221;-87
2021/08/22 00:28:42;;;;;;;;;;;26.60;99.90;;;;;;1848507;77;20197;-88
2021/08/22 00:31:12;;;;;;;;;;;26.70;99.90;;;;;;1846497;76;20556;-87
2021/08/22 00:33:43;;;;;;;;;;;26.70;99.90;;;;;;1845537;76;20238;-87
2021/08/22 00:36:14;;;;;;;;;;;26.70;99.90;;;;;;1848415;76;20211;-87
2021/08/22 00:38:47;;;;;;;;;;;26.70;99.90;;;;;;1847897;76;20194;-87
2021/08/22 00:41:18;;;;;;;;;;;26.70;99.90;;;;;;1848157;76;20383;-86
2021/08/22 00:43:48;;;;;;;;;;;26.80;99.90;;;;;;1848891;76;20267;-87
2021/08/22 00:46:23;;;;;;;;;;;26.80;99.90;;;;;;1850668;76;20213;-87
2021/08/22 00:48:53;;;;;;;;;;;26.80;99.90;;;;;;1846625;77;20185;-87
2021/08/22 00:51:23;;;;;;;;;;;26.90;99.90;;;;;;1843545;76;20174;-87
2021/08/22 00:53:53;;;;;;;;;;;26.90;99.90;;;;;;1847822;76;20194;-86
2021/08/22 00:56:23;;;;;;;;;;;26.90;99.90;;;;;;1836282;76;20313;-87
2021/08/22 00:58:59;;;;;;;;;;;27.00;99.90;;;;;;1848345;76;20230;-86
2021/08/22 01:01:29;;;;;;;;;;;27.00;99.90;;;;;;1820730;76;20209;-86
2021/08/22 01:04:06;;;;;;;;;;;27.10;99.90;;;;;;1828202;77;20562;-87
2021/08/22 01:06:38;;;;;;;;;;;27.10;99.90;;;;;;1842662;76;20178;-86
2021/08/22 01:09:10;;;;;;;;;;;27.10;99.90;;;;;;1849290;76;20316;-86
2021/08/22 01:11:40;;;;;;;;;;;27.20;99.90;;;;;;1839016;76;20182;-86
2021/08/22 01:14:11;;;;;;;;;;;27.30;99.90;;;;;;1854812;76;20272;-88
2021/08/22 01:16:42;;;;;;;;;;;27.30;99.90;;;;;;1846640;76;20224;-88
2021/08/22 01:19:13;;;;;;;;;;;27.30;99.90;;;;;;1831912;77;20471;-87
2021/08/22 01:21:43;;;;;;;;;;;27.40;99.90;;;;;;1815051;78;20196;-87
2021/08/22 01:24:13;;;;;;;;;;;27.50;99.90;;;;;;1841360;78;20186;-87
2021/08/22 01:26:43;;;;;;;;;;;27.60;99.90;;;;;;1845488;76;20499;-87
2021/08/22 01:29:14;;;;;;;;;;;27.70;99.90;;;;;;1846803;76;20209;-87
2021/08/22 01:31:54;;;;;;;;;;;27.70;99.90;;;;;;1843992;76;20213;-86
2021/08/22 01:34:20;;;;;;;;;;;27.80;99.90;;;;;;1839537;76;20559;-87
2021/08/22 01:36:50;;;;;;;;;;;27.90;99.90;;;;;;1838952;78;20336;-87
2021/08/22 01:39:20;;;;;;;;;;;28.00;99.90;;;;;;1842783;78;20213;-88
2021/08/22 01:41:50;;;;;;;;;;;28.10;99.90;;;;;;1841582;78;20221;-87
2021/08/22 01:44:21;;;;;;;;;;;28.10;99.90;;;;;;1843674;77;20385;-87
2021/08/22 01:46:50;;;;;;;;;;;28.20;99.90;;;;;;1841178;76;20249;-87
2021/08/22 01:49:20;;;;;;;;;;;28.30;99.90;;;;;;1840336;76;20177;-87
2021/08/22 01:51:50;;;;;;;;;;;28.30;99.90;;;;;;1833144;76;20241;-87
2021/08/22 01:54:20;;;;;;;;;;;28.40;99.90;;;;;;1843786;77;20268;-87
2021/08/22 01:57:33;;;;;;;;;;;28.50;99.90;;;;;;1843531;76;20241;-86
2021/08/22 01:59:30;;;;;;;;;;;28.50;99.90;;;;;;1819006;77;20148;-86
2021/08/22 02:02:00;;;;;;;;;;;28.60;99.90;;;;;;1830732;77;20233;-87
2021/08/22 02:04:35;;;;;;;;;;;28.70;99.90;;;;;;1821985;77;20335;-86
2021/08/22 02:07:06;;;;;;;;;;;28.80;99.90;;;;;;1818142;78;20247;-87
2021/08/22 02:09:39;;;;;;;;;;;28.90;99.90;;;;;;1849713;73;20102;-86
2021/08/22 02:12:45;;;;;;;;;;;29.00;99.90;;;;;;1821216;76;20125;-86
2021/08/22 02:15:05;;;;;;;;;;;29.10;99.90;;;;;;1770773;79;20201;-87
2021/08/22 02:18:22;;;;;;;;;;;29.20;99.90;;;;;;1781295;79;20168;-86
2021/08/22 02:20:38;;;;;;;;;;;29.30;99.40;;;;;;1769750;77;20272;-86
2021/08/22 02:23:08;;;;;;;;;;;29.40;99.40;;;;;;1773510;79;20282;-87
2021/08/22 02:28:36;;;;;;;;;;;29.60;98.70;;;;;;1766126;79;20214;-87
2021/08/22 02:31:06;;;;;;;;;;;29.70;98.60;;;;;;1771252;79;20418;-87
2021/08/22 02:33:36;;;;;;;;;;;29.80;99.00;;;;;;1770935;79;20230;-86
2021/08/22 02:36:06;;;;;;;;;;;29.90;98.60;;;;;;1772694;79;20821;-87
2021/08/22 02:38:44;;;;;;;;;;;30.00;98.10;;;;;;1765267;79;20226;-86
2021/08/22 02:41:17;;;;;;;;;;;30.10;96.80;;;;;;1765589;79;20531;-87
2021/08/22 02:43:45;;;;;;;;;;;30.20;96.50;;;;;;1764586;79;20595;-87
2021/08/22 02:46:19;;;;;;;;;;;30.30;95.90;;;;;;1768912;79;20266;-87
2021/08/22 02:48:48;;;;;;;;;;;30.30;95.30;;;;;;1774692;79;20326;-88
2021/08/22 02:51:18;;;;;;;;;;;30.40;95.80;;;;;;1777469;79;20223;-87
2021/08/22 02:53:48;;;;;;;;;;;30.50;95.40;;;;;;1774563;79;20306;-87
2021/08/22 02:56:18;;;;;;;;;;;30.60;95.90;;;;;;1801284;79;20149;-87
2021/08/22 02:58:48;;;;;;;;;;;30.70;95.60;;;;;;1785506;79;20237;-87
2021/08/22 03:01:18;;;;;;;;;;;30.80;95.10;;;;;;1802069;78;20225;-87
2021/08/22 03:03:48;;;;;;;;;;;30.90;94.90;;;;;;1803532;78;20866;-87
2021/08/22 03:06:22;;;;;;;;;;;31.00;94.60;;;;;;1810694;78;20217;-87
2021/08/22 03:08:53;;;;;;;;;;;31.10;94.60;;;;;;1800597;78;20243;-87
2021/08/22 03:11:42;;;;;;;;;;;31.20;95.00;;;;;;1791770;77;20222;-87
2021/08/22 03:14:08;;;;;;;;;;;31.30;93.80;;;;;;1849947;76;20209;-88
2021/08/22 03:16:56;;;;;;;;;;;31.50;93.60;;;;;;1850056;76;20493;-86
2021/08/22 03:19:25;;;;;;;;;;;31.50;92.50;;;;;;1798437;78;20528;-88
2021/08/22 03:21:55;;;;;;;;;;;31.60;93.00;;;;;;1823470;77;20133;-87
2021/08/22 03:24:25;;;;;;;;;;;31.60;93.00;;;;;;1803226;78;20283;-87
2021/08/22 03:26:57;;;;;;;;;;;31.60;92.60;;;;;;1814084;77;20285;-87
2021/08/22 03:29:40;;;;;;;;;;;31.70;92.70;;;;;;1818500;77;20294;-87
2021/08/22 03:32:28;;;;;;;;;;;31.80;92.50;;;;;;1827283;77;20211;-86
2021/08/22 03:35:02;;;;;;;;;;;31.80;92.40;;;;;;1815093;78;20204;-85
2021/08/22 03:37:29;;;;;;;;;;;31.90;91.70;;;;;;1862838;77;20157;-87
2021/08/22 03:39:59;;;;;;;;;;;31.90;92.10;;;;;;1816561;77;20190;-88
2021/08/22 03:42:29;;;;;;;;;;;32.00;92.50;;;;;;1830472;77;20189;-87
2021/08/22 03:44:59;;;;;;;;;;;32.10;91.70;;;;;;1825303;77;20223;-87
2021/08/22 03:47:28;;;;;;;;;;;32.10;91.10;;;;;;1790936;79;20197;-86
2021/08/22 03:49:58;;;;;;;;;;;32.20;91.10;;;;;;1814748;77;20212;-88
2021/08/22 03:52:32;;;;;;;;;;;32.20;91.10;;;;;;1818170;77;20240;-90
2021/08/22 03:55:03;;;;;;;;;;;32.30;91.40;;;;;;1819947;78;20211;-88
2021/08/22 03:57:34;;;;;;;;;;;32.30;91.20;;;;;;1792247;78;20348;-90
2021/08/22 04:00:03;;;;;;;;;;;32.30;90.80;;;;;;1827310;76;20178;-89
2021/08/22 04:02:33;;;;;;;;;;;32.40;90.90;;;;;;1845786;78;20216;-89
2021/08/22 04:05:05;;;;;;;;;;;32.40;90.40;;;;;;1850296;77;20231;-90
2021/08/22 04:07:59;;;;;;;;;;;32.50;89.30;;;;;;1834109;77;20289;-88
2021/08/22 04:10:29;;;;;;;;;;;32.40;90.00;;;;;;1851398;76;20171;-88
2021/08/22 04:12:58;;;;;;;;;;;32.50;89.60;;;;;;1817529;77;20249;-89
2021/08/22 04:15:29;;;;;;;;;;;32.50;88.60;;;;;;1819814;79;20119;-88
2021/08/22 04:17:58;;;;;;;;;;;32.50;88.40;;;;;;1841100;76;20451;-86
2021/08/22 04:20:28;;;;;;;;;;;32.40;89.50;;;;;;1830925;76;20199;-90
2021/08/22 04:22:59;;;;;;;;;;;32.40;89.20;;;;;;1843671;78;20261;-89
2021/08/22 04:26:09;;;;;;;;;;;32.40;89.20;;;;;;1761568;80;20196;-92
2021/08/22 04:28:33;;;;;;;;;;;32.40;87.00;;;;;;1699390;83;20254;-90
2021/08/22 04:31:03;;;;;;;;;;;32.60;85.80;;;;;;1747421;80;20349;-89
2021/08/22 04:33:34;;;;;;;;;;;32.60;86.50;;;;;;1787488;80;20151;-90
2021/08/22 04:36:05;;;;;;;;;;;32.70;86.30;;;;;;1755808;80;20277;-89
2021/08/22 04:38:36;;;;;;;;;;;32.70;84.70;;;;;;1752363;81;20249;-92
2021/08/22 04:41:07;;;;;;;;;;;32.80;84.20;;;;;;1765536;80;20211;-89
2021/08/22 04:43:37;;;;;;;;;;;32.90;83.90;;;;;;1709891;83;20299;-89
2021/08/22 04:46:08;;;;;;;;;;;32.90;84.00;;;;;;1734490;82;20245;-89
2021/08/22 04:48:39;;;;;;;;;;;32.90;83.00;;;;;;1756617;81;20247;-89
2021/08/22 04:51:10;;;;;;;;;;;33.10;85.10;;;;;;1734302;81;20259;-90
2021/08/22 04:53:40;;;;;;;;;;;33.10;80.70;;;;;;1750496;81;20381;-89
2021/08/22 04:56:10;;;;;;;;;;;33.10;79.30;;;;;;1744188;81;20519;-90
2021/08/22 04:58:40;;;;;;;;;;;33.20;80.70;;;;;;1737626;82;20453;-90
2021/08/22 05:01:09;;;;;;;;;;;33.20;80.80;;;;;;1746021;81;20287;-90
2021/08/22 05:03:41;;;;;;;;;;;33.20;74.60;;;;;;1821839;77;20208;-90
2021/08/22 05:06:11;;;;;;;;;;;33.30;77.30;;;;;;1849313;77;20340;-89
2021/08/22 05:08:41;;;;;;;;;;;33.40;77.90;;;;;;1852742;76;20205;-89
2021/08/22 05:11:11;;;;;;;;;;;33.40;76.80;;;;;;1849874;77;20255;-89
2021/08/22 05:13:40;;;;;;;;;;;33.40;77.50;;;;;;1848309;77;20620;-90
2021/08/22 05:16:10;;;;;;;;;;;33.40;76.80;;;;;;1848033;76;20244;-90
2021/08/22 05:18:41;;;;;;;;;;;33.40;81.30;;;;;;1854276;76;20213;-89
2021/08/22 05:21:12;;;;;;;;;;;33.40;80.30;;;;;;1848724;76;20178;-90
2021/08/22 05:23:41;;;;;;;;;;;33.40;76.80;;;;;;1850448;77;20398;-89
2021/08/22 05:26:11;;;;;;;;;;;33.60;78.60;;;;;;1842870;77;20252;-89
2021/08/22 05:28:41;;;;;;;;;;;33.70;77.50;;;;;;1849600;76;20209;-89
2021/08/22 05:31:11;;;;;;;;;;;33.80;76.60;;;;;;1845563;77;20201;-89
2021/08/22 05:33:40;;;;;;;;;;;33.80;74.40;;;;;;1849768;77;20135;-89
2021/08/22 05:36:15;;;;;;;;;;;33.80;74.40;;;;;;1844670;76;20177;-89
2021/08/22 05:38:45;;;;;;;;;;;33.90;74.00;;;;;;1848353;76;20194;-88
2021/08/22 05:41:15;;;;;;;;;;;33.80;73.10;;;;;;1840663;77;20186;-89
2021/08/22 05:43:45;;;;;;;;;;;33.70;69.90;;;;;;1853083;76;20194;-88
2021/08/22 05:46:14;;;;;;;;;;;33.70;70.80;;;;;;1848611;76;20208;-88
2021/08/22 05:48:45;;;;;;;;;;;33.70;71.00;;;;;;1845310;76;20189;-87
2021/08/22 05:51:16;;;;;;;;;;;33.60;72.60;;;;;;1849129;77;20186;-88
2021/08/22 05:53:46;;;;;;;;;;;33.40;70.50;;;;;;1860504;77;20118;-88
2021/08/22 05:56:18;;;;;;;;;;;33.40;69.50;;;;;;1850373;77;20614;-91
2021/08/22 05:58:49;;;;;;;;;;;33.40;72.20;;;;;;1850310;76;20408;-89
2021/08/22 06:01:28;;;;;;;;;;;33.40;72.00;;;;;;1853160;76;20232;-89
2021/08/22 06:03:59;;;;;;;;;;;33.40;71.80;;;;;;1857054;76;20182;-89
2021/08/22 06:06:33;;;;;;;;;;;33.40;72.40;;;;;;1818308;77;20584;-91
2021/08/22 06:12:38;;;;;;;;;;;33.50;72.30;;;;;;1665956;84;20232;-90
2021/08/22 06:19:04;;;;;;;;;;;;;;;;;;;;;
2021/08/22 06:21:29;;;;;;;;;;;33.80;73.20;;;;;;1723037;81;20268;-89
2021/08/22 06:24:01;;;;;;;;;;;33.90;73.20;;;;;;1717181;81;20291;-89
2021/08/22 06:29:45;;;;;;;;;;;34.00;74.40;;;;;;1637589;86;20159;-92
2021/08/22 06:33:17;;;;;;;;;;;34.00;70.50;;;;;;1972129;71;20255;-90
2021/08/22 06:35:56;;;;;;;;;;;34.00;72.70;;;;;;1930544;72;20386;-92
2021/08/22 06:38:29;;;;;;;;;;;34.10;69.80;;;;;;1903909;74;20829;-91
2021/08/22 06:41:31;;;;;;;;;;;;;;;;;;;;;
2021/08/22 06:44:05;;;;;;;;;;;34.10;70.00;;;;;;1940008;73;20249;-92
2021/08/22 06:46:38;;;;;;;;;;;34.20;71.20;;;;;;1946526;72;20219;-93
2021/08/22 06:49:09;;;;;;;;;;;34.30;73.50;;;;;;1955051;73;20214;-91
2021/08/22 06:51:41;;;;;;;;;;;34.30;72.40;;;;;;1964143;73;20390;-90
2021/08/22 06:54:10;;;;;;;;;;;34.30;72.40;;;;;;1952363;72;20224;-92
2021/08/22 06:56:40;;;;;;;;;;;34.20;72.60;;;;;;1958697;72;20215;-91
2021/08/22 06:59:10;;;;;;;;;;;34.20;73.10;;;;;;1947165;73;20515;-91
2021/08/22 07:01:39;;;;;;;;;;;34.20;74.20;;;;;;1944956;73;20204;-90
2021/08/22 07:04:13;;;;;;;;;;;34.20;75.80;;;;;;1944997;73;20117;-90
2021/08/22 07:06:45;;;;;;;;;;;34.20;76.60;;;;;;1900615;75;20586;-90
2021/08/22 07:09:15;;;;;;;;;;;34.10;75.50;;;;;;1901998;75;20210;-90
2021/08/22 07:11:48;;;;;;;;;;;34.00;74.80;;;;;;1915404;74;20244;-88
2021/08/22 07:14:32;;;;;;;;;;;33.90;75.00;;;;;;1884803;76;20129;-92
2021/08/22 07:17:06;;;;;;;;;;;33.70;74.40;;;;;;1908330;74;20195;-90
2021/08/22 07:19:37;;;;;;;;;;;33.60;74.40;;;;;;1906994;74;20179;-91
2021/08/22 07:22:12;;;;;;;;;;;33.60;74.50;;;;;;1889577;74;20180;-89
2021/08/22 07:24:48;;;;;;;;;;;33.60;74.00;;;;;;1920693;73;20370;-90
2021/08/22 07:27:19;;;;;;;;;;;33.70;72.10;;;;;;1951223;73;20197;-90
2021/08/22 07:29:52;;;;;;;;;;;33.80;73.20;;;;;;1884461;74;20251;-90
2021/08/22 07:32:21;;;;;;;;;;;33.80;73.70;;;;;;1912554;74;20216;-93
2021/08/22 07:34:53;;;;;;;;;;;33.90;72.30;;;;;;1923272;74;20328;-91
2021/08/22 07:37:37;;;;;;;;;;;34.00;71.10;;;;;;1921687;74;20196;-90
2021/08/22 07:40:04;;;;;;;;;;;34.00;72.80;;;;;;1915819;74;20830;-90
2021/08/22 07:42:37;;;;;;;;;;;34.10;73.80;;;;;;1921168;74;20205;-91
2021/08/22 07:45:05;;;;;;;;;;;34.10;71.90;;;;;;1922803;73;20225;-91
2021/08/22 07:47:35;;;;;;;;;;;34.00;73.00;;;;;;1918065;73;20214;-90
2021/08/22 07:50:05;;;;;;;;;;;34.00;71.60;;;;;;1920941;73;20602;-90
2021/08/22 07:52:35;;;;;;;;;;;34.00;72.30;;;;;;1925303;74;20188;-89
2021/08/22 07:55:09;;;;;;;;;;;34.00;71.00;;;;;;1923203;74;20663;-89
2021/08/22 07:57:36;;;;;;;;;;;34.00;71.30;;;;;;1931176;74;20230;-90
2021/08/22 08:00:07;;;;;;;;;;;34.10;71.60;;;;;;1935211;73;20234;-90
2021/08/22 08:02:41;;;;;;;;;;;34.20;70.50;;;;;;1931774;73;20178;-90
2021/08/22 08:05:12;;;;;;;;;;;34.20;73.20;;;;;;1933062;74;20155;-90
2021/08/22 08:07:47;;;;;;;;;;;34.20;72.40;;;;;;1920404;74;20184;-89
2021/08/22 08:10:19;;;;;;;;;;;34.20;72.40;;;;;;1925301;73;20162;-90
2021/08/22 08:12:48;;;;;;;;;;;34.20;68.90;;;;;;1905186;73;20162;-90
2021/08/22 08:15:19;;;;;;;;;;;34.20;67.70;;;;;;1917392;74;20244;-90
2021/08/22 08:17:50;;;;;;;;;;;34.10;70.50;;;;;;1918111;73;20208;-92
2021/08/22 08:20:24;;;;;;;;;;;34.10;67.80;;;;;;1917519;74;20323;-91
2021/08/22 08:23:06;;;;;;;;;;;;;;;;;;;;;
2021/08/22 08:25:52;;;;;;;;;;;;;;;;;;;;;
2021/08/22 08:28:45;;;;;;;;;;;;;;;;;;;;;
2021/08/22 08:31:42;;;;;;;;;;;;;;;;;;;;;
2021/08/22 08:34:24;;;;;;;;;;;;;;;;;;;;;
2021/08/22 08:37:02;;;;;;;;;;;34.00;68.30;;;;;;1904818;74;20232;-92
2021/08/22 08:39:27;;;;;;;;;;;34.00;69.70;;;;;;1912789;74;20631;-90
2021/08/22 08:42:03;;;;;;;;;;;34.00;67.20;;;;;;1871121;74;20176;-90
2021/08/22 08:44:33;;;;;;;;;;;33.90;69.00;;;;;;1914545;74;20181;-88
2021/08/22 08:47:04;;;;;;;;;;;33.90;69.50;;;;;;1908596;74;20186;-90
2021/08/22 08:49:35;;;;;;;;;;;33.80;69.60;;;;;;1921631;74;20177;-91
2021/08/22 08:52:06;;;;;;;;;;;33.80;71.50;;;;;;1927544;74;20173;-90
2021/08/22 08:54:37;;;;;;;;;;;33.80;73.30;;;;;;1903800;74;20217;-90
2021/08/22 08:57:08;;;;;;;;;;;33.80;74.10;;;;;;1900473;74;20173;-90
2021/08/22 08:59:45;;;;;;;;;;;33.70;75.20;;;;;;1926244;74;20177;-92
2021/08/22 09:02:12;;;;;;;;;;;33.50;75.80;;;;;;1926212;74;20204;-90
2021/08/22 09:04:43;;;;;;;;;;;33.40;76.00;;;;;;1921545;74;20574;-91
2021/08/22 09:07:14;;;;;;;;;;;33.30;76.50;;;;;;1906533;74;20354;-90
2021/08/22 09:09:46;;;;;;;;;;;33.20;74.60;;;;;;1910978;74;20479;-91
2021/08/22 09:12:19;;;;;;;;;;;33.10;74.00;;;;;;1932093;74;20243;-90
2021/08/22 09:14:49;;;;;;;;;;;33.00;73.70;;;;;;1909634;74;20112;-89
2021/08/22 09:17:30;;;;;;;;;;;;;;;;;;;;;
2021/08/22 09:20:05;;;;;;;;;;;32.90;75.60;;;;;;1901030;76;20128;-88
2021/08/22 09:22:36;;;;;;;;;;;32.80;76.00;;;;;;1899592;75;20214;-89
2021/08/22 09:25:07;;;;;;;;;;;32.80;74.10;;;;;;1896213;75;20202;-89
2021/08/22 09:27:38;;;;;;;;;;;32.80;74.50;;;;;;1893631;74;20185;-89
2021/08/22 09:30:08;;;;;;;;;;;32.70;74.80;;;;;;1906432;74;20215;-89
2021/08/22 09:32:39;;;;;;;;;;;32.70;74.90;;;;;;1877428;74;20128;-89
2021/08/22 09:35:10;;;;;;;;;;;32.70;75.20;;;;;;1893107;74;20371;-87
2021/08/22 09:37:41;;;;;;;;;;;32.70;76.00;;;;;;1894824;74;20222;-90
2021/08/22 09:40:12;;;;;;;;;;;32.60;76.70;;;;;;1892045;74;20266;-90
2021/08/22 09:42:43;;;;;;;;;;;32.60;76.70;;;;;;1894850;74;20255;-89
2021/08/22 09:45:15;;;;;;;;;;;32.50;76.90;;;;;;1899314;74;20641;-90
2021/08/22 09:47:47;;;;;;;;;;;32.50;77.40;;;;;;1879406;75;20228;-88
2021/08/22 09:50:20;;;;;;;;;;;32.40;77.30;;;;;;1902983;73;20272;-89
2021/08/22 09:52:50;;;;;;;;;;;32.40;77.10;;;;;;1906290;73;20194;-88
2021/08/22 09:55:21;;;;;;;;;;;32.40;77.40;;;;;;1904803;73;20206;-90
2021/08/22 09:57:52;;;;;;;;;;;32.40;77.20;;;;;;1908048;73;20260;-90
2021/08/22 10:00:23;;;;;;;;;;;32.30;77.80;;;;;;1916221;73;20249;-89
2021/08/22 10:02:54;;;;;;;;;;;32.40;77.90;;;;;;1911492;75;20193;-89
2021/08/22 10:05:27;;;;;;;;;;;32.40;78.20;;;;;;1892706;75;20259;-88
2021/08/22 10:07:58;;;;;;;;;;;32.40;78.10;;;;;;1898579;74;20290;-91
2021/08/22 10:10:29;;;;;;;;;;;32.40;78.40;;;;;;1898614;74;20258;-90
2021/08/22 10:12:59;;;;;;;;;;;32.40;78.50;;;;;;1895762;74;20293;-87
2021/08/22 10:15:29;;;;;;;;;;;32.40;78.20;;;;;;1899993;74;20261;-89
2021/08/22 10:17:59;;;;;;;;;;;32.40;78.50;;;;;;1893364;74;20131;-88
2021/08/22 10:20:30;;;;;;;;;;;32.40;78.60;;;;;;1895160;74;20216;-87
2021/08/22 10:23:01;;;;;;;;;;;32.40;78.70;;;;;;1898442;74;20636;-87
2021/08/22 10:25:32;;;;;;;;;;;32.40;78.00;;;;;;1905537;73;20105;-87
2021/08/22 10:28:03;;;;;;;;;;;32.40;78.30;;;;;;1898393;69;20244;-86
2021/08/22 10:30:34;;;;;;;;;;;32.40;79.60;;;;;;1905044;69;20216;-88
2021/08/22 10:33:04;;;;;;;;;;;32.40;80.10;;;;;;1889928;71;20178;-87
2021/08/22 10:35:33;;;;;;;;;;;32.40;80.40;;;;;;1890049;71;20199;-89
2021/08/22 10:38:04;;;;;;;;;;;32.40;81.20;;;;;;1885471;72;20276;-89
2021/08/22 10:40:34;;;;;;;;;;;32.40;81.80;;;;;;1868004;73;20173;-88
2021/08/22 10:43:05;;;;;;;;;;;32.30;81.20;;;;;;1871862;73;20185;-90
2021/08/22 10:45:36;;;;;;;;;;;32.30;80.80;;;;;;1873611;75;20424;-89
2021/08/22 10:48:06;;;;;;;;;;;32.20;79.50;;;;;;1856714;75;20213;-90
2021/08/22 10:50:37;;;;;;;;;;;32.20;79.60;;;;;;1856488;75;20240;-90
2021/08/22 10:53:08;;;;;;;;;;;32.10;80.30;;;;;;1869729;75;20193;-86
2021/08/22 10:55:38;;;;;;;;;;;32.00;80.70;;;;;;1863848;77;20201;-86
2021/08/22 10:58:08;;;;;;;;;;;31.90;81.00;;;;;;1869036;75;20289;-85
2021/08/22 11:00:40;;;;;;;;;;;31.80;81.50;;;;;;1862167;75;20277;-88
2021/08/22 11:03:11;;;;;;;;;;;31.80;81.90;;;;;;1855774;76;20503;-86
2021/08/22 11:05:41;;;;;;;;;;;31.80;82.00;;;;;;1876205;75;20221;-89
2021/08/22 11:08:13;;;;;;;;;;;31.70;82.50;;;;;;1880387;75;20253;-86
2021/08/22 11:10:43;;;;;;;;;;;31.60;82.90;;;;;;1871038;75;20239;-87
2021/08/22 11:13:14;;;;;;;;;;;31.60;83.50;;;;;;1862046;75;20344;-87
2021/08/22 11:15:48;;;;;;;;;;;31.50;83.60;;;;;;1856038;75;20211;-87
2021/08/22 11:18:18;;;;;;;;;;;31.50;84.60;;;;;;1867792;75;20218;-88
2021/08/22 11:20:48;;;;;;;;;;;31.40;85.20;;;;;;1877840;75;20549;-87
2021/08/22 11:23:18;;;;;;;;;;;31.30;85.40;;;;;;1865798;75;20205;-85
2021/08/22 11:25:48;;;;;;;;;;;31.20;86.00;;;;;;1863502;75;20259;-87
2021/08/22 11:28:19;;;;;;;;;;;31.10;86.10;;;;;;1866856;75;20472;-87
2021/08/22 11:30:49;;;;;;;;;;;31.10;86.70;;;;;;1868885;75;20311;-86
2021/08/22 11:33:18;;;;;;;;;;;31.10;87.20;;;;;;1874455;75;20217;-85
2021/08/22 11:35:48;;;;;;;;;;;31.00;87.30;;;;;;1881513;74;20213;-86
2021/08/22 11:38:18;;;;;;;;;;;30.90;87.60;;;;;;1892719;75;20240;-85
2021/08/22 11:40:48;;;;;;;;;;;30.90;88.00;;;;;;1877250;74;20171;-85
2021/08/22 11:43:18;;;;;;;;;;;30.80;88.40;;;;;;1879513;75;20273;-85
2021/08/22 11:45:48;;;;;;;;;;;30.80;88.60;;;;;;1877060;75;20754;-85
2021/08/22 11:48:18;;;;;;;;;;;30.70;88.90;;;;;;1891316;75;20194;-86
2021/08/22 11:50:49;;;;;;;;;;;30.70;89.20;;;;;;1877127;74;20500;-86
2021/08/22 11:53:19;;;;;;;;;;;30.60;89.10;;;;;;1894691;72;20275;-87
2021/08/22 11:55:50;;;;;;;;;;;30.60;89.50;;;;;;1900973;74;20179;-86
2021/08/22 11:58:27;;;;;;;;;;;30.60;89.60;;;;;;1927631;74;20598;-86
2021/08/22 12:00:58;;;;;;;;;;;30.60;89.80;;;;;;1911987;74;20423;-84
2021/08/22 12:03:28;;;;;;;;;;;30.60;90.10;;;;;;1953598;73;20206;-85
2021/08/22 12:06:00;;;;;;;;;;;30.50;90.20;;;;;;1944576;74;20211;-86
2021/08/22 12:08:30;;;;;;;;;;;30.50;90.30;;;;;;1952463;73;20123;-86
2021/08/22 12:11:43;;;;;;;;;;;30.50;90.40;;;;;;1959643;73;20158;-90
2021/08/22 12:13:53;;;;;;;;;;;30.40;90.50;;;;;;1916658;74;20224;-91
2021/08/22 12:16:24;;;;;;;;;;;30.40;90.30;;;;;;1936672;73;20151;-91
2021/08/22 12:18:55;;;;;;;;;;;30.30;90.30;;;;;;1960910;73;20124;-91
2021/08/22 12:21:25;;;;;;;;;;;30.30;90.40;;;;;;1951759;72;20213;-93
2021/08/22 12:23:57;;;;;;;;;;;30.30;90.50;;;;;;1951788;73;20167;-91
2021/08/22 12:26:29;;;;;;;;;;;30.30;90.50;;;;;;1931417;72;20170;-92
2021/08/22 12:29:02;;;;;;;;;;;30.20;90.30;;;;;;1946644;72;20154;-92
2021/08/22 12:31:33;;;;;;;;;;;30.20;90.30;;;;;;1960780;73;20468;-92
2021/08/22 12:34:04;;;;;;;;;;;30.20;90.10;;;;;;1932604;73;20122;-90
2021/08/22 12:36:36;;;;;;;;;;;30.10;90.00;;;;;;1954166;73;20195;-91
2021/08/22 12:39:09;;;;;;;;;;;30.10;89.90;;;;;;1956716;73;20221;-91
2021/08/22 12:41:40;;;;;;;;;;;30.10;88.60;;;;;;1954864;72;20136;-91
2021/08/22 12:44:12;;;;;;;;;;;30.10;88.40;;;;;;1961532;73;20276;-90
2021/08/22 12:46:48;;;;;;;;;;;30.00;88.60;;;;;;1960729;73;20179;-91
2021/08/22 12:49:15;;;;;;;;;;;30.00;89.50;;;;;;1937926;73;20139;-90
2021/08/22 12:51:46;;;;;;;;;;;30.10;89.00;;;;;;1960707;73;20191;-91
2021/08/22 12:54:15;;;;;;;;;;;30.10;88.90;;;;;;1957471;72;20214;-91
2021/08/22 12:56:45;;;;;;;;;;;30.10;88.90;;;;;;1944191;73;20229;-90
2021/08/22 12:59:15;;;;;;;;;;;30.10;89.20;;;;;;1919718;73;20201;-90
2021/08/22 13:01:47;;;;;;;;;;;30.10;89.30;;;;;;1942149;72;20546;-90
2021/08/22 13:04:19;;;;;;;;;;;30.10;88.80;;;;;;1954822;73;20246;-90
2021/08/22 13:06:50;;;;;;;;;;;30.00;88.60;;;;;;1934967;72;20202;-91
2021/08/22 13:09:21;;;;;;;;;;;30.00;88.80;;;;;;1949374;73;20239;-90
2021/08/22 13:11:51;;;;;;;;;;;30.00;88.90;;;;;;1950089;73;20186;-90
2021/08/22 13:14:22;;;;;;;;;;;29.90;89.00;;;;;;1946416;73;20205;-89
2021/08/22 13:16:51;;;;;;;;;;;29.90;89.10;;;;;;1939491;73;20201;-90
2021/08/22 13:19:21;;;;;;;;;;;29.90;89.30;;;;;;1950427;72;20114;-90
2021/08/22 13:21:55;;;;;;;;;;;30.00;89.50;;;;;;1958427;72;20116;-90
2021/08/22 13:24:23;;;;;;;;;;;30.00;89.50;;;;;;1960827;71;20238;-91
2021/08/22 13:26:53;;;;;;;;;;;30.00;89.40;;;;;;1962012;71;20209;-93
2021/08/22 13:29:23;;;;;;;;;;;30.10;89.80;;;;;;1947389;72;20167;-91
2021/08/22 13:31:54;;;;;;;;;;;30.10;89.70;;;;;;1937936;73;20190;-92
2021/08/22 13:34:25;;;;;;;;;;;30.10;89.00;;;;;;1941990;73;20184;-94
2021/08/22 13:36:55;;;;;;;;;;;30.10;88.60;;;;;;1947207;72;20173;-90
2021/08/22 13:39:27;;;;;;;;;;;30.10;88.10;;;;;;1960414;72;20221;-91
2021/08/22 13:41:57;;;;;;;;;;;30.10;88.50;;;;;;1938963;73;20210;-92
2021/08/22 13:44:26;;;;;;;;;;;30.10;88.60;;;;;;1954350;72;20226;-91
2021/08/22 13:46:56;;;;;;;;;;;30.00;88.50;;;;;;1948442;73;20179;-90
2021/08/22 13:49:26;;;;;;;;;;;30.00;88.90;;;;;;1954010;73;20615;-89
2021/08/22 13:51:56;;;;;;;;;;;30.00;89.70;;;;;;1931550;72;20288;-89
2021/08/22 13:54:29;;;;;;;;;;;30.00;88.70;;;;;;1924618;73;20161;-91
2021/08/22 13:56:59;;;;;;;;;;;29.90;88.90;;;;;;1915111;74;20244;-91
2021/08/22 13:59:33;;;;;;;;;;;30.00;89.40;;;;;;1926052;74;20300;-90
2021/08/22 14:02:04;;;;;;;;;;;30.00;89.60;;;;;;1899815;75;20207;-90
2021/08/22 14:04:56;;;;;;;;;;;29.90;89.30;;;;;;1907151;74;20285;-89
2021/08/22 14:07:44;;;;;;;;;;;29.90;89.50;;;;;;1881689;75;20288;-90
2021/08/22 14:10:14;;;;;;;;;;;29.90;89.50;;;;;;1892863;74;20163;-90
2021/08/22 14:12:44;;;;;;;;;;;30.00;90.00;;;;;;1889262;74;20239;-90
2021/08/22 14:15:16;;;;;;;;;;;29.90;90.10;;;;;;1912679;74;20437;-90
2021/08/22 14:17:51;;;;;;;;;;;29.90;90.20;;;;;;1937701;72;20160;-90
2021/08/22 14:20:21;;;;;;;;;;;29.90;90.20;;;;;;1932656;74;20167;-91
2021/08/22 14:22:54;;;;;;;;;;;29.90;90.30;;;;;;1912860;74;20147;-91
2021/08/22 14:25:25;;;;;;;;;;;29.90;90.30;;;;;;1938495;74;20119;-92
2021/08/22 14:27:54;;;;;;;;;;;29.90;90.30;;;;;;1908788;74;20186;-91
2021/08/22 14:30:27;;;;;;;;;;;29.90;91.20;;;;;;1903800;74;20340;-90
2021/08/22 14:33:05;;;;;;;;;;;29.80;91.30;;;;;;1902348;74;20205;-91
2021/08/22 14:35:36;;;;;;;;;;;29.70;91.00;;;;;;1896608;75;20153;-91
2021/08/22 14:38:06;;;;;;;;;;;29.70;91.10;;;;;;1889655;76;20144;-91
2021/08/22 14:40:39;;;;;;;;;;;29.60;91.20;;;;;;1928786;74;20471;-91
2021/08/22 14:43:09;;;;;;;;;;;29.60;91.30;;;;;;1900278;75;20159;-91
2021/08/22 14:45:40;;;;;;;;;;;29.60;91.30;;;;;;1880921;75;20440;-91
2021/08/22 14:48:17;;;;;;;;;;;29.50;91.50;;;;;;1940860;74;20128;-91
2021/08/22 14:50:48;;;;;;;;;;;29.60;91.70;;;;;;1938916;73;20216;-92
2021/08/22 14:53:22;;;;;;;;;;;29.50;91.70;;;;;;1928364;73;20269;-91
2021/08/22 14:55:52;;;;;;;;;;;29.50;91.70;;;;;;1937923;72;20433;-90
2021/08/22 14:58:21;;;;;;;;;;;29.50;91.90;;;;;;1916359;74;20205;-93
2021/08/22 15:00:55;;;;;;;;;;;29.50;91.90;;;;;;1917629;74;20171;-91
2021/08/22 15:03:26;;;;;;;;;;;29.40;92.00;;;;;;1927558;73;20247;-90
2021/08/22 15:05:56;;;;;;;;;;;29.40;92.20;;;;;;1920555;74;20128;-90
2021/08/22 15:08:29;;;;;;;;;;;29.40;92.40;;;;;;1902248;74;20225;-91